Wetterdaten: Freitag, 02.12.2011
Datum Zeit Temp. Auen Feucht Auen Luftdruck Regen Richtung Richtung Windben
02.12.2011 00:00 -0,7 C 99 % 1016,6 hPa 0,0 mm - - 0 0,0 km/h (0 Bft)
02.12.2011 00:05 -0,7 C 99 % 1016,6 hPa 0,0 mm - - 0 0,0 km/h (0 Bft)
02.12.2011 00:10 -0,9 C 99 % 1016,4 hPa 0,0 mm - - 0 0,0 km/h (0 Bft)
02.12.2011 00:15 -1,0 C 99 % 1016,4 hPa 0,0 mm - - 0 0,0 km/h (0 Bft)
02.12.2011 00:20 -1,0 C 99 % 1016,4 hPa 0,0 mm - - 0 0,0 km/h (0 Bft)
02.12.2011 00:25 -1,1 C 99 % 1016,4 hPa 0,0 mm - - 0 0,0 km/h (0 Bft)
02.12.2011 00:30 -0,9 C 99 % 1016,4 hPa 0,0 mm - - 0 0,0 km/h (0 Bft)
02.12.2011 00:35 -0,9 C 99 % 1016,2 hPa 0,0 mm - - 0 0,0 km/h (0 Bft)
02.12.2011 00:40 -0,8 C 99 % 1016,1 hPa 0,0 mm - - 0 0,0 km/h (0 Bft)
02.12.2011 00:45 -0,7 C 99 % 1016,1 hPa 0,0 mm - - 0 0,0 km/h (0 Bft)
02.12.2011 00:50 -0,6 C 99 % 1016,2 hPa 0,0 mm - - 0 0,0 km/h (0 Bft)
02.12.2011 00:55 -0,7 C 99 % 1016,0 hPa 0,0 mm - - 0 0,0 km/h (0 Bft)
02.12.2011 01:00 -1,0 C 99 % 1016,0 hPa 0,0 mm - - 0 0,0 km/h (0 Bft)
02.12.2011 01:05 -1,0 C 99 % 1015,9 hPa 0,0 mm - - 0 0,0 km/h (0 Bft)
02.12.2011 01:10 -1,2 C 99 % 1016,0 hPa 0,0 mm - - 0 0,0 km/h (0 Bft)
02.12.2011 01:15 -1,3 C 99 % 1015,9 hPa 0,0 mm - - 0 0,0 km/h (0 Bft)
02.12.2011 01:20 -1,2 C 99 % 1015,8 hPa 0,0 mm - - 0 0,0 km/h (0 Bft)
02.12.2011 01:25 -0,9 C 99 % 1015,6 hPa 0,0 mm W 262 2,5 km/h (1 Bft)
02.12.2011 01:30 -0,9 C 99 % 1015,7 hPa 0,0 mm W 261 2,5 km/h (1 Bft)
02.12.2011 01:35 -1,0 C 99 % 1015,7 hPa 0,0 mm SW 225 1,1 km/h (1 Bft)
02.12.2011 01:40 -1,2 C 99 % 1015,7 hPa 0,0 mm - - 0 0,0 km/h (0 Bft)
02.12.2011 01:45 -1,1 C 99 % 1015,7 hPa 0,0 mm - - 0 0,0 km/h (0 Bft)
02.12.2011 01:50 -1,2 C 99 % 1015,7 hPa 0,0 mm - - 0 0,0 km/h (0 Bft)
02.12.2011 01:55 -1,5 C 99 % 1015,6 hPa 0,0 mm - - 0 0,0 km/h (0 Bft)
02.12.2011 02:00 -1,5 C 99 % 1015,5 hPa 0,0 mm - - 0 0,0 km/h (0 Bft)
02.12.2011 02:05 -1,5 C 99 % 1015,6 hPa 0,0 mm - - 0 0,0 km/h (0 Bft)
02.12.2011 02:10 -1,2 C 99 % 1015,6 hPa 0,0 mm - - 0 0,0 km/h (0 Bft)
02.12.2011 02:15 -1,0 C 99 % 1015,6 hPa 0,0 mm - - 0 0,0 km/h (0 Bft)
02.12.2011 02:20 -1,0 C 99 % 1015,4 hPa 0,0 mm - - 0 0,0 km/h (0 Bft)
02.12.2011 02:25 -1,1 C 99 % 1015,3 hPa 0,0 mm - - 0 0,0 km/h (0 Bft)
02.12.2011 02:30 -1,1 C 99 % 1015,4 hPa 0,0 mm - - 0 0,0 km/h (0 Bft)
02.12.2011 02:35 -1,0 C 99 % 1015,2 hPa 0,0 mm - - 0 0,0 km/h (0 Bft)
02.12.2011 02:40 -1,0 C 99 % 1014,9 hPa 0,0 mm - - 0 0,0 km/h (0 Bft)
02.12.2011 02:45 -1,1 C 99 % 1015,2 hPa 0,0 mm - - 0 0,0 km/h (0 Bft)
02.12.2011 02:50 -1,2 C 99 % 1015,2 hPa 0,0 mm - - 0 0,0 km/h (0 Bft)
02.12.2011 02:55 -1,3 C 99 % 1015,1 hPa 0,0 mm - - 0 0,0 km/h (0 Bft)
02.12.2011 03:00 -1,4 C 99 % 1015,2 hPa 0,0 mm - - 0 0,0 km/h (0 Bft)
02.12.2011 03:05 -1,4 C 99 % 1015,0 hPa 0,0 mm - - 0 0,0 km/h (0 Bft)
02.12.2011 03:10 -1,6 C 100 % 1015,0 hPa 0,0 mm - - 0 0,0 km/h (0 Bft)
02.12.2011 03:15 -1,7 C 99 % 1014,9 hPa 0,0 mm - - 0 0,0 km/h (0 Bft)
02.12.2011 03:20 -1,5 C 99 % 1014,8 hPa 0,0 mm W 270 3,6 km/h (1 Bft)
02.12.2011 03:25 -1,4 C 99 % 1014,8 hPa 0,0 mm W 270 3,6 km/h (1 Bft)
02.12.2011 03:30 -1,4 C 99 % 1014,8 hPa 0,0 mm - - 0 0,0 km/h (0 Bft)
02.12.2011 03:35 -1,5 C 99 % 1014,8 hPa 0,0 mm W 270 1,1 km/h (1 Bft)
02.12.2011 03:40 -1,5 C 99 % 1014,8 hPa 0,0 mm W 270 1,1 km/h (1 Bft)
02.12.2011 03:45 -1,5 C 99 % 1014,8 hPa 0,0 mm W 270 1,1 km/h (1 Bft)
02.12.2011 03:50 -1,7 C 100 % 1014,8 hPa 0,0 mm W 270 1,1 km/h (1 Bft)
02.12.2011 03:55 -1,9 C 100 % 1014,7 hPa 0,0 mm - - 0 0,0 km/h (0 Bft)
02.12.2011 04:00 -1,9 C 100 % 1014,7 hPa 0,0 mm - - 0 0,0 km/h (0 Bft)
02.12.2011 04:05 -1,9 C 100 % 1014,5 hPa 0,0 mm - - 0 0,0 km/h (0 Bft)
02.12.2011 04:10 -2,0 C 100 % 1014,6 hPa 0,0 mm - - 0 0,0 km/h (0 Bft)
02.12.2011 04:15 -2,0 C 100 % 1014,4 hPa 0,0 mm - - 0 0,0 km/h (0 Bft)
02.12.2011 04:20 -2,0 C 100 % 1014,4 hPa 0,0 mm - - 0 0,0 km/h (0 Bft)
02.12.2011 04:25 -2,1 C 100 % 1014,6 hPa 0,0 mm - - 0 0,0 km/h (0 Bft)
02.12.2011 04:30 -2,2 C 100 % 1014,5 hPa 0,0 mm - - 0 0,0 km/h (0 Bft)
02.12.2011 04:35 -2,5 C 97 % 1014,4 hPa 0,0 mm - - 0 0,0 km/h (0 Bft)
02.12.2011 04:40 -2,7 C 97 % 1014,4 hPa 0,0 mm - - 0 0,0 km/h (0 Bft)
02.12.2011 04:45 -2,7 C 100 % 1014,4 hPa 0,0 mm - - 0 0,0 km/h (0 Bft)
02.12.2011 04:50 -2,8 C 100 % 1014,4 hPa 0,0 mm - - 0 0,0 km/h (0 Bft)
02.12.2011 04:55 -2,7 C 100 % 1014,3 hPa 0,0 mm - - 0 0,0 km/h (0 Bft)
02.12.2011 05:00 -2,7 C 100 % 1014,3 hPa 0,0 mm - - 0 0,0 km/h (0 Bft)
02.12.2011 05:05 -2,7 C 100 % 1014,3 hPa 0,0 mm - - 0 0,0 km/h (0 Bft)
02.12.2011 05:10 -2,7 C 100 % 1014,3 hPa 0,0 mm - - 0 0,0 km/h (0 Bft)
02.12.2011 05:15 -2,8 C 100 % 1014,5 hPa 0,0 mm - - 0 0,0 km/h (0 Bft)
02.12.2011 05:20 -3,0 C 100 % 1014,6 hPa 0,0 mm - - 0 0,0 km/h (0 Bft)
02.12.2011 05:25 -3,1 C 100 % 1014,6 hPa 0,0 mm - - 0 0,0 km/h (0 Bft)
02.12.2011 05:30 -3,1 C 100 % 1014,5 hPa 0,0 mm - - 0 0,0 km/h (0 Bft)
02.12.2011 05:35 -3,2 C 100 % 1014,6 hPa 0,0 mm - - 0 0,0 km/h (0 Bft)
02.12.2011 05:40 -3,2 C 100 % 1014,4 hPa 0,0 mm - - 0 0,0 km/h (0 Bft)
02.12.2011 05:45 -3,2 C 100 % 1014,5 hPa 0,0 mm - - 0 0,0 km/h (0 Bft)
02.12.2011 05:50 -3,2 C 100 % 1014,4 hPa 0,0 mm - - 0 0,0 km/h (0 Bft)
02.12.2011 05:55 -3,1 C 100 % 1014,6 hPa 0,0 mm - - 0 0,0 km/h (0 Bft)
02.12.2011 06:00 -3,1 C 100 % 1014,5 hPa 0,0 mm - - 0 0,0 km/h (0 Bft)
02.12.2011 06:05 -3,1 C 100 % 1014,4 hPa 0,0 mm - - 0 0,0 km/h (0 Bft)
02.12.2011 06:10 -3,3 C 100 % 1014,4 hPa 0,0 mm - - 0 0,0 km/h (0 Bft)
02.12.2011 06:15 -3,3 C 100 % 1014,4 hPa 0,0 mm - - 0 0,0 km/h (0 Bft)
02.12.2011 06:20 -3,4 C 100 % 1014,4 hPa 0,0 mm - - 0 0,0 km/h (0 Bft)
02.12.2011 06:25 -3,5 C 100 % 1014,3 hPa 0,0 mm - - 0 0,0 km/h (0 Bft)
02.12.2011 06:30 -3,5 C 100 % 1014,3 hPa 0,0 mm - - 0 0,0 km/h (0 Bft)
02.12.2011 06:35 -3,5 C 100 % 1014,4 hPa 0,0 mm - - 0 0,0 km/h (0 Bft)
02.12.2011 06:40 -3,4 C 100 % 1014,2 hPa 0,0 mm - - 0 0,0 km/h (0 Bft)
02.12.2011 06:45 -3,2 C 100 % 1014,2 hPa 0,0 mm - - 0 0,0 km/h (0 Bft)
02.12.2011 06:50 -3,2 C 100 % 1014,4 hPa 0,0 mm - - 0 0,0 km/h (0 Bft)
02.12.2011 06:55 -2,9 C 99 % 1014,4 hPa 0,0 mm - - 0 0,0 km/h (0 Bft)
02.12.2011 07:00 -2,6 C 99 % 1014,4 hPa 0,0 mm - - 0 0,0 km/h (0 Bft)
02.12.2011 07:05 -2,6 C 99 % 1014,6 hPa 0,0 mm - - 0 0,0 km/h (0 Bft)
02.12.2011 07:10 -2,4 C 99 % 1014,5 hPa 0,0 mm - - 0 0,0 km/h (0 Bft)
02.12.2011 07:15 -2,3 C 99 % 1014,6 hPa 0,0 mm - - 0 0,0 km/h (0 Bft)
02.12.2011 07:20 -2,2 C 99 % 1014,3 hPa 0,0 mm - - 0 0,0 km/h (0 Bft)
02.12.2011 07:25 -2,2 C 99 % 1014,5 hPa 0,0 mm - - 0 0,0 km/h (0 Bft)
02.12.2011 07:30 -2,2 C 99 % 1014,6 hPa 0,0 mm - - 0 0,0 km/h (0 Bft)
02.12.2011 07:35 -2,2 C 99 % 1014,6 hPa 0,0 mm - - 0 0,0 km/h (0 Bft)
02.12.2011 07:40 -2,2 C 99 % 1014,6 hPa 0,0 mm - - 0 0,0 km/h (0 Bft)
02.12.2011 07:45 -2,3 C 99 % 1014,7 hPa 0,0 mm - - 0 0,0 km/h (0 Bft)
02.12.2011 07:50 -2,2 C 99 % 1014,9 hPa 0,0 mm - - 0 0,0 km/h (0 Bft)
02.12.2011 07:55 -2,2 C 99 % 1014,8 hPa 0,0 mm - - 0 0,0 km/h (0 Bft)
02.12.2011 08:00 -2,1 C 99 % 1014,7 hPa 0,0 mm - - 0 0,0 km/h (0 Bft)
02.12.2011 08:05 -2,1 C 99 % 1014,7 hPa 0,0 mm - - 0 0,0 km/h (0 Bft)
02.12.2011 08:10 -2,0 C 99 % 1014,8 hPa 0,0 mm - - 0 0,0 km/h (0 Bft)
02.12.2011 08:15 -2,0 C 99 % 1014,9 hPa 0,0 mm - - 0 0,0 km/h (0 Bft)
02.12.2011 08:20 -1,9 C 99 % 1015,0 hPa 0,0 mm - - 0 0,0 km/h (0 Bft)
02.12.2011 08:25 -1,8 C 99 % 1015,1 hPa 0,0 mm - - 0 0,0 km/h (0 Bft)
02.12.2011 08:30 -1,7 C 99 % 1015,2 hPa 0,0 mm - - 0 0,0 km/h (0 Bft)
02.12.2011 08:35 -1,7 C 99 % 1015,2 hPa 0,0 mm - - 0 0,0 km/h (0 Bft)
02.12.2011 08:40 -1,7 C 99 % 1015,3 hPa 0,0 mm - - 0 0,0 km/h (0 Bft)
02.12.2011 08:45 -1,6 C 99 % 1015,3 hPa 0,0 mm - - 0 0,0 km/h (0 Bft)
02.12.2011 08:50 -1,3 C 99 % 1015,3 hPa 0,0 mm - - 0 0,0 km/h (0 Bft)
02.12.2011 08:55 -1,0 C 99 % 1015,5 hPa 0,0 mm - - 0 0,0 km/h (0 Bft)
02.12.2011 09:00 -0,7 C 99 % 1015,5 hPa 0,0 mm - - 0 0,0 km/h (0 Bft)
02.12.2011 09:05 -0,7 C 99 % 1015,3 hPa 0,0 mm - - 0 0,0 km/h (0 Bft)
02.12.2011 09:10 0,5 C 99 % 1015,5 hPa 0,0 mm - - 0 0,0 km/h (0 Bft)
02.12.2011 09:15 1,1 C 99 % 1015,4 hPa 0,0 mm - - 0 0,0 km/h (0 Bft)
02.12.2011 09:20 1,4 C 99 % 1015,5 hPa 0,0 mm - - 0 0,0 km/h (0 Bft)
02.12.2011 09:25 1,1 C 99 % 1015,5 hPa 0,0 mm - - 0 0,0 km/h (0 Bft)
02.12.2011 09:30 0,7 C 99 % 1015,6 hPa 0,0 mm - - 0 0,0 km/h (0 Bft)
02.12.2011 09:35 0,6 C 99 % 1015,6 hPa 0,0 mm - - 0 0,0 km/h (0 Bft)
02.12.2011 09:40 0,5 C 99 % 1015,7 hPa 0,0 mm - - 0 0,0 km/h (0 Bft)
02.12.2011 09:45 0,4 C 99 % 1015,7 hPa 0,0 mm - - 0 0,0 km/h (0 Bft)
02.12.2011 09:50 0,3 C 99 % 1015,9 hPa 0,0 mm - - 0 0,0 km/h (0 Bft)
02.12.2011 09:55 0,2 C 99 % 1015,9 hPa 0,0 mm - - 0 0,0 km/h (0 Bft)
02.12.2011 10:00 0,2 C 99 % 1015,9 hPa 0,0 mm - - 0 0,0 km/h (0 Bft)
02.12.2011 10:05 0,2 C 99 % 1016,1 hPa 0,0 mm - - 0 0,0 km/h (0 Bft)
02.12.2011 10:10 0,5 C 99 % 1015,8 hPa 0,0 mm - - 0 0,0 km/h (0 Bft)
02.12.2011 10:15 1,0 C 99 % 1015,9 hPa 0,0 mm - - 0 0,0 km/h (0 Bft)
02.12.2011 10:20 1,2 C 100 % 1015,9 hPa 0,0 mm - - 0 0,0 km/h (0 Bft)
02.12.2011 10:25 1,2 C 100 % 1015,8 hPa 0,0 mm - - 0 0,0 km/h (0 Bft)
02.12.2011 10:30 1,1 C 97 % 1015,9 hPa 0,0 mm - - 0 0,0 km/h (0 Bft)
02.12.2011 10:35 1,1 C 100 % 1015,7 hPa 0,0 mm - - 0 0,0 km/h (0 Bft)
02.12.2011 10:40 1,6 C 100 % 1015,7 hPa 0,0 mm - - 0 0,0 km/h (0 Bft)
02.12.2011 10:45 1,6 C 97 % 1015,6 hPa 0,0 mm - - 0 0,0 km/h (0 Bft)
02.12.2011 10:50 1,5 C 97 % 1015,4 hPa 0,0 mm - - 0 0,0 km/h (0 Bft)
02.12.2011 10:55 1,8 C 97 % 1015,6 hPa 0,0 mm - - 0 0,0 km/h (0 Bft)
02.12.2011 11:00 2,1 C 100 % 1015,4 hPa 0,0 mm - - 0 0,0 km/h (0 Bft)
02.12.2011 11:05 2,1 C 100 % 1015,2 hPa 0,0 mm - - 0 0,0 km/h (0 Bft)
02.12.2011 11:10 3,9 C 97 % 1015,2 hPa 0,0 mm - - 0 0,0 km/h (0 Bft)
02.12.2011 11:15 4,6 C 96 % 1015,2 hPa 0,0 mm - - 0 0,0 km/h (0 Bft)
02.12.2011 11:20 4,9 C 94 % 1015,0 hPa 0,0 mm - - 0 0,0 km/h (0 Bft)
02.12.2011 11:25 4,8 C 92 % 1015,1 hPa 0,0 mm - - 0 0,0 km/h (0 Bft)
02.12.2011 11:30 4,6 C 90 % 1014,8 hPa 0,0 mm - - 0 0,0 km/h (0 Bft)
02.12.2011 11:35 4,9 C 90 % 1014,9 hPa 0,0 mm - - 0 0,0 km/h (0 Bft)
02.12.2011 11:40 5,4 C 91 % 1014,9 hPa 0,0 mm - - 0 0,0 km/h (0 Bft)
02.12.2011 11:45 6,1 C 90 % 1015,0 hPa 0,0 mm - - 0 0,0 km/h (0 Bft)
02.12.2011 11:50 6,6 C 89 % 1014,8 hPa 0,0 mm - - 0 0,0 km/h (0 Bft)
02.12.2011 11:55 6,7 C 88 % 1014,7 hPa 0,0 mm - - 0 0,0 km/h (0 Bft)
02.12.2011 12:00 7,2 C 87 % 1014,8 hPa 0,0 mm - - 0 0,0 km/h (0 Bft)
02.12.2011 12:05 7,2 C 87 % 1014,7 hPa 0,0 mm - - 0 0,0 km/h (0 Bft)
02.12.2011 12:10 8,3 C 83 % 1014,6 hPa 0,0 mm - - 0 0,0 km/h (0 Bft)
02.12.2011 12:15 8,5 C 82 % 1014,5 hPa 0,0 mm - - 0 0,0 km/h (0 Bft)
02.12.2011 12:20 9,0 C 79 % 1014,2 hPa 0,0 mm - - 0 0,0 km/h (0 Bft)
02.12.2011 12:25 9,2 C 78 % 1014,4 hPa 0,0 mm - - 0 0,0 km/h (0 Bft)
02.12.2011 12:30 9,7 C 78 % 1014,2 hPa 0,0 mm - - 0 0,0 km/h (0 Bft)
02.12.2011 12:35 10,0 C 76 % 1014,4 hPa 0,0 mm - - 0 0,0 km/h (0 Bft)
02.12.2011 12:40 10,1 C 77 % 1014,2 hPa 0,0 mm - - 0 0,0 km/h (0 Bft)
02.12.2011 12:45 10,1 C 77 % 1014,2 hPa 0,0 mm - - 0 0,0 km/h (0 Bft)
02.12.2011 12:50 10,1 C 77 % 1014,3 hPa 0,0 mm - - 0 0,0 km/h (0 Bft)
02.12.2011 12:55 10,1 C 77 % 1014,4 hPa 0,0 mm - - 0 0,0 km/h (0 Bft)
02.12.2011 13:00 10,1 C 77 % 1014,3 hPa 0,0 mm - - 0 0,0 km/h (0 Bft)
02.12.2011 13:05 10,1 C 77 % 1014,2 hPa 0,0 mm - - 0 0,0 km/h (0 Bft)
02.12.2011 13:10 10,1 C 77 % 1014,1 hPa 0,0 mm - - 0 0,0 km/h (0 Bft)
02.12.2011 13:15 10,1 C 77 % 1014,1 hPa 0,0 mm - - 0 0,0 km/h (0 Bft)
02.12.2011 13:20 10,1 C 77 % 1014,0 hPa 0,0 mm - - 0 0,0 km/h (0 Bft)
02.12.2011 13:25 10,1 C 77 % 1013,8 hPa 0,0 mm - - 0 0,0 km/h (0 Bft)
02.12.2011 13:30 8,8 C 72 % 1013,7 hPa 0,0 mm - - 0 0,0 km/h (0 Bft)
02.12.2011 13:35 9,0 C 67 % 1013,8 hPa 0,0 mm O 90 2,5 km/h (1 Bft)
02.12.2011 13:40 9,0 C 69 % 1013,8 hPa 0,0 mm O 90 2,5 km/h (1 Bft)
02.12.2011 13:45 9,1 C 69 % 1014,0 hPa 0,0 mm - - 0 0,0 km/h (0 Bft)
02.12.2011 13:50 9,1 C 67 % 1013,7 hPa 0,0 mm - - 0 0,0 km/h (0 Bft)
02.12.2011 13:55 9,1 C 66 % 1013,6 hPa 0,0 mm - - 0 0,0 km/h (0 Bft)
02.12.2011 14:00 9,1 C 68 % 1013,6 hPa 0,0 mm SO 135 1,1 km/h (1 Bft)
02.12.2011 14:05 9,1 C 68 % 1013,6 hPa 0,0 mm SO 135 1,1 km/h (1 Bft)
02.12.2011 14:10 9,1 C 67 % 1013,6 hPa 0,0 mm - - 0 0,0 km/h (0 Bft)
02.12.2011 14:15 8,8 C 67 % 1013,4 hPa 0,0 mm - - 0 0,0 km/h (0 Bft)
02.12.2011 14:20 8,7 C 66 % 1013,5 hPa 0,0 mm SO 135 2,5 km/h (1 Bft)
02.12.2011 14:25 8,5 C 68 % 1013,4 hPa 0,0 mm O 95 8,6 km/h (2 Bft)
02.12.2011 14:30 8,3 C 69 % 1013,6 hPa 0,0 mm O-SO 109 8,6 km/h (2 Bft)
02.12.2011 14:35 8,2 C 69 % 1013,3 hPa 0,0 mm O-SO 102 7,2 km/h (2 Bft)
02.12.2011 14:40 8,3 C 69 % 1013,3 hPa 0,0 mm O 101 7,2 km/h (2 Bft)
02.12.2011 14:45 8,3 C 69 % 1013,6 hPa 0,0 mm O-SO 121 6,1 km/h (2 Bft)
02.12.2011 14:50 8,2 C 69 % 1013,5 hPa 0,0 mm - - 0 0,0 km/h (0 Bft)
02.12.2011 14:55 8,0 C 69 % 1013,6 hPa 0,0 mm - - 0 0,0 km/h (0 Bft)
02.12.2011 15:00 7,8 C 70 % 1013,7 hPa 0,0 mm - - 0 0,0 km/h (0 Bft)
02.12.2011 15:05 7,8 C 70 % 1013,7 hPa 0,0 mm - - 0 0,0 km/h (0 Bft)
02.12.2011 15:10 7,3 C 71 % 1013,4 hPa 0,0 mm - - 0 0,0 km/h (0 Bft)
02.12.2011 15:15 7,0 C 72 % 1013,8 hPa 0,0 mm - - 0 0,0 km/h (0 Bft)
02.12.2011 15:20 6,8 C 72 % 1013,7 hPa 0,0 mm - - 0 0,0 km/h (0 Bft)
02.12.2011 15:25 6,6 C 72 % 1013,7 hPa 0,0 mm - - 0 0,0 km/h (0 Bft)
02.12.2011 15:30 6,4 C 72 % 1013,6 hPa 0,0 mm - - 0 0,0 km/h (0 Bft)
02.12.2011 15:35 5,9 C 72 % 1013,7 hPa 0,0 mm - - 0 0,0 km/h (0 Bft)
02.12.2011 15:40 5,6 C 74 % 1013,8 hPa 0,0 mm - - 0 0,0 km/h (0 Bft)
02.12.2011 15:45 4,9 C 75 % 1013,8 hPa 0,0 mm - - 0 0,0 km/h (0 Bft)
02.12.2011 15:50 4,6 C 77 % 1013,7 hPa 0,0 mm - - 0 0,0 km/h (0 Bft)
02.12.2011 15:55 4,3 C 77 % 1013,8 hPa 0,0 mm - - 0 0,0 km/h (0 Bft)
02.12.2011 16:00 4,0 C 78 % 1013,7 hPa 0,0 mm - - 0 0,0 km/h (0 Bft)
02.12.2011 16:05 4,0 C 78 % 1013,7 hPa 0,0 mm - - 0 0,0 km/h (0 Bft)
02.12.2011 16:10 3,4 C 80 % 1013,8 hPa 0,0 mm - - 0 0,0 km/h (0 Bft)
02.12.2011 16:15 3,4 C 82 % 1013,7 hPa 0,0 mm - - 0 0,0 km/h (0 Bft)
02.12.2011 16:20 3,4 C 83 % 1013,8 hPa 0,0 mm N 1 1,1 km/h (1 Bft)
02.12.2011 16:25 3,4 C 84 % 1013,8 hPa 0,0 mm N 1 1,1 km/h (1 Bft)
02.12.2011 16:30 3,3 C 84 % 1014,0 hPa 0,0 mm - - 0 0,0 km/h (0 Bft)
02.12.2011 16:35 2,9 C 84 % 1014,1 hPa 0,0 mm - - 0 0,0 km/h (0 Bft)
02.12.2011 16:40 2,7 C 84 % 1013,8 hPa 0,0 mm - - 0 0,0 km/h (0 Bft)
02.12.2011 16:45 2,6 C 84 % 1014,0 hPa 0,0 mm - - 0 0,0 km/h (0 Bft)
02.12.2011 16:50 2,4 C 84 % 1014,1 hPa 0,0 mm - - 0 0,0 km/h (0 Bft)
02.12.2011 16:55 2,2 C 85 % 1014,2 hPa 0,0 mm - - 0 0,0 km/h (0 Bft)
02.12.2011 17:00 2,0 C 84 % 1014,2 hPa 0,0 mm - - 0 0,0 km/h (0 Bft)
02.12.2011 17:05 1,9 C 84 % 1014,2 hPa 0,0 mm - - 0 0,0 km/h (0 Bft)
02.12.2011 17:10 1,5 C 85 % 1014,3 hPa 0,0 mm - - 0 0,0 km/h (0 Bft)
02.12.2011 17:15 1,4 C 86 % 1014,2 hPa 0,0 mm - - 0 0,0 km/h (0 Bft)
02.12.2011 17:20 1,3 C 86 % 1014,2 hPa 0,0 mm - - 0 0,0 km/h (0 Bft)
02.12.2011 17:25 1,2 C 86 % 1014,2 hPa 0,0 mm - - 0 0,0 km/h (0 Bft)
02.12.2011 17:30 1,0 C 86 % 1014,2 hPa 0,0 mm - - 0 0,0 km/h (0 Bft)
02.12.2011 17:35 0,7 C 86 % 1014,1 hPa 0,0 mm - - 0 0,0 km/h (0 Bft)
02.12.2011 17:40 0,7 C 87 % 1014,5 hPa 0,0 mm - - 0 0,0 km/h (0 Bft)
02.12.2011 17:45 0,8 C 87 % 1014,2 hPa 0,0 mm - - 0 0,0 km/h (0 Bft)
02.12.2011 17:50 0,6 C 87 % 1014,4 hPa 0,0 mm - - 0 0,0 km/h (0 Bft)
02.12.2011 17:55 0,6 C 87 % 1014,3 hPa 0,0 mm - - 0 0,0 km/h (0 Bft)
02.12.2011 18:00 0,5 C 87 % 1014,3 hPa 0,0 mm - - 0 0,0 km/h (0 Bft)
02.12.2011 18:05 0,5 C 87 % 1014,4 hPa 0,0 mm - - 0 0,0 km/h (0 Bft)
02.12.2011 18:10 -0,1 C 87 % 1014,6 hPa 0,0 mm - - 0 0,0 km/h (0 Bft)
02.12.2011 18:15 -0,2 C 87 % 1014,5 hPa 0,0 mm - - 0 0,0 km/h (0 Bft)
02.12.2011 18:20 -0,3 C 88 % 1014,5 hPa 0,0 mm - - 0 0,0 km/h (0 Bft)
02.12.2011 18:25 -0,3 C 88 % 1014,6 hPa 0,0 mm - - 0 0,0 km/h (0 Bft)
02.12.2011 18:30 -0,5 C 88 % 1014,5 hPa 0,0 mm - - 0 0,0 km/h (0 Bft)
02.12.2011 18:35 -0,7 C 88 % 1014,6 hPa 0,0 mm - - 0 0,0 km/h (0 Bft)
02.12.2011 18:40 -0,6 C 89 % 1014,7 hPa 0,0 mm - - 0 0,0 km/h (0 Bft)
02.12.2011 18:45 -0,5 C 90 % 1014,4 hPa 0,0 mm - - 0 0,0 km/h (0 Bft)
02.12.2011 18:50 -0,4 C 90 % 1014,7 hPa 0,0 mm - - 0 0,0 km/h (0 Bft)
02.12.2011 18:55 -0,4 C 90 % 1014,5 hPa 0,0 mm - - 0 0,0 km/h (0 Bft)
02.12.2011 19:00 -0,5 C 90 % 1014,7 hPa 0,0 mm - - 0 0,0 km/h (0 Bft)
02.12.2011 19:05 -0,5 C 90 % 1014,7 hPa 0,0 mm - - 0 0,0 km/h (0 Bft)
02.12.2011 19:10 -0,6 C 90 % 1014,8 hPa 0,0 mm - - 0 0,0 km/h (0 Bft)
02.12.2011 19:15 -0,6 C 90 % 1014,7 hPa 0,0 mm - - 0 0,0 km/h (0 Bft)
02.12.2011 19:20 -0,6 C 90 % 1014,9 hPa 0,0 mm - - 0 0,0 km/h (0 Bft)
02.12.2011 19:25 -0,7 C 91 % 1014,8 hPa 0,0 mm - - 0 0,0 km/h (0 Bft)
02.12.2011 19:30 -0,6 C 91 % 1014,9 hPa 0,0 mm - - 0 0,0 km/h (0 Bft)
02.12.2011 19:35 -0,6 C 91 % 1015,1 hPa 0,0 mm - - 0 0,0 km/h (0 Bft)
02.12.2011 19:40 -0,7 C 91 % 1014,9 hPa 0,0 mm W 270 1,1 km/h (1 Bft)
02.12.2011 19:45 -0,8 C 91 % 1015,0 hPa 0,0 mm W 270 1,1 km/h (1 Bft)
02.12.2011 19:50 -0,9 C 91 % 1014,9 hPa 0,0 mm W 270 1,1 km/h (1 Bft)
02.12.2011 19:55 -0,9 C 91 % 1015,1 hPa 0,0 mm - - 0 0,0 km/h (0 Bft)
02.12.2011 20:00 -1,0 C 91 % 1015,0 hPa 0,0 mm - - 0 0,0 km/h (0 Bft)
02.12.2011 20:05 -1,0 C 91 % 1015,1 hPa 0,0 mm - - 0 0,0 km/h (0 Bft)
02.12.2011 20:10 -1,1 C 91 % 1015,2 hPa 0,0 mm - - 0 0,0 km/h (0 Bft)
02.12.2011 20:15 -1,1 C 91 % 1015,2 hPa 0,0 mm - - 0 0,0 km/h (0 Bft)
02.12.2011 20:16 -1,1 C 91 % 1015,1 hPa 0,0 mm - - 0 0,0 km/h (0 Bft)
02.12.2011 20:21 -1,1 C 91 % 1015,3 hPa 0,0 mm - - 0 0,0 km/h (0 Bft)
02.12.2011 20:26 -1,3 C 91 % 1015,2 hPa 0,0 mm - - 0 0,0 km/h (0 Bft)
02.12.2011 20:31 -1,5 C 91 % 1015,3 hPa 0,0 mm - - 0 0,0 km/h (0 Bft)
02.12.2011 20:36 -1,4 C 92 % 1015,4 hPa 0,0 mm - - 0 0,0 km/h (0 Bft)
02.12.2011 20:41 -1,4 C 92 % 1015,4 hPa 0,0 mm - - 0 0,0 km/h (0 Bft)
02.12.2011 20:46 -1,3 C 92 % 1015,4 hPa 0,0 mm - - 0 0,0 km/h (0 Bft)
02.12.2011 20:51 -1,3 C 92 % 1015,5 hPa 0,0 mm - - 0 0,0 km/h (0 Bft)
02.12.2011 20:56 -1,3 C 92 % 1015,6 hPa 0,0 mm - - 0 0,0 km/h (0 Bft)
02.12.2011 21:01 -1,2 C 92 % 1015,7 hPa 0,0 mm - - 0 0,0 km/h (0 Bft)
02.12.2011 21:06 -1,2 C 92 % 1015,8 hPa 0,0 mm - - 0 0,0 km/h (0 Bft)
02.12.2011 21:11 -1,3 C 92 % 1015,9 hPa 0,0 mm - - 0 0,0 km/h (0 Bft)
02.12.2011 21:16 -1,2 C 92 % 1016,0 hPa 0,0 mm - - 0 0,0 km/h (0 Bft)
02.12.2011 21:21 -1,0 C 93 % 1016,1 hPa 0,0 mm - - 0 0,0 km/h (0 Bft)
02.12.2011 21:26 -1,0 C 93 % 1016,1 hPa 0,0 mm W 270 1,1 km/h (1 Bft)
02.12.2011 21:31 -1,0 C 93 % 1016,1 hPa 0,0 mm W 270 1,1 km/h (1 Bft)
02.12.2011 21:36 -1,0 C 93 % 1016,2 hPa 0,0 mm W 270 1,1 km/h (1 Bft)
02.12.2011 21:41 -1,0 C 92 % 1016,3 hPa 0,0 mm - - 0 0,0 km/h (0 Bft)
02.12.2011 21:46 -1,2 C 92 % 1016,3 hPa 0,0 mm - - 0 0,0 km/h (0 Bft)
02.12.2011 21:51 -1,1 C 92 % 1016,2 hPa 0,0 mm - - 0 0,0 km/h (0 Bft)
02.12.2011 21:56 -1,1 C 93 % 1016,3 hPa 0,0 mm - - 0 0,0 km/h (0 Bft)
02.12.2011 22:01 -1,0 C 93 % 1016,3 hPa 0,0 mm - - 0 0,0 km/h (0 Bft)
02.12.2011 22:06 -1,0 C 93 % 1016,3 hPa 0,0 mm - - 0 0,0 km/h (0 Bft)
02.12.2011 22:11 -0,8 C 93 % 1016,3 hPa 0,0 mm - - 0 0,0 km/h (0 Bft)
02.12.2011 22:16 -0,5 C 94 % 1016,4 hPa 0,0 mm - - 0 0,0 km/h (0 Bft)
02.12.2011 22:21 -0,3 C 94 % 1016,3 hPa 0,0 mm - - 0 0,0 km/h (0 Bft)
02.12.2011 22:26 -0,1 C 94 % 1016,3 hPa 0,0 mm - - 0 0,0 km/h (0 Bft)
02.12.2011 22:31 0,0 C 94 % 1016,4 hPa 0,0 mm - - 0 0,0 km/h (0 Bft)
02.12.2011 22:36 0,1 C 94 % 1016,4 hPa 0,0 mm - - 0 0,0 km/h (0 Bft)
02.12.2011 22:41 0,2 C 93 % 1016,4 hPa 0,0 mm - - 0 0,0 km/h (0 Bft)
02.12.2011 22:46 0,3 C 94 % 1016,3 hPa 0,0 mm - - 0 0,0 km/h (0 Bft)
02.12.2011 22:51 0,3 C 94 % 1016,5 hPa 0,0 mm - - 0 0,0 km/h (0 Bft)
02.12.2011 22:56 0,3 C 94 % 1016,6 hPa 0,0 mm - - 0 0,0 km/h (0 Bft)
02.12.2011 23:01 0,3 C 94 % 1016,7 hPa 0,0 mm - - 0 0,0 km/h (0 Bft)
02.12.2011 23:06 0,3 C 94 % 1016,4 hPa 0,0 mm - - 0 0,0 km/h (0 Bft)
02.12.2011 23:11 0,4 C 94 % 1016,5 hPa 0,0 mm - - 0 0,0 km/h (0 Bft)
02.12.2011 23:16 0,5 C 94 % 1016,4 hPa 0,0 mm - - 0 0,0 km/h (0 Bft)
02.12.2011 23:21 0,6 C 94 % 1016,6 hPa 0,0 mm - - 0 0,0 km/h (0 Bft)
02.12.2011 23:26 0,6 C 94 % 1016,4 hPa 0,0 mm - - 0 0,0 km/h (0 Bft)
02.12.2011 23:31 0,7 C 95 % 1016,4 hPa 0,0 mm - - 0 0,0 km/h (0 Bft)
02.12.2011 23:36 0,7 C 95 % 1016,6 hPa 0,0 mm - - 0 0,0 km/h (0 Bft)
02.12.2011 23:41 0,9 C 95 % 1016,6 hPa 0,0 mm - - 0 0,0 km/h (0 Bft)
02.12.2011 23:46 0,9 C 95 % 1016,5 hPa 0,0 mm - - 0 0,0 km/h (0 Bft)
02.12.2011 23:51 1,0 C 95 % 1016,7 hPa 0,0 mm - - 0 0,0 km/h (0 Bft)
02.12.2011 23:56 1,1 C 95 % 1016,6 hPa 0,0 mm - - 0 0,0 km/h (0 Bft)
_ Min-Zeit 06:25 13:55 14:35 - - - 00:00
Minimum _ -3,5 C 66 % 1013,3 hPa - - - 0,0 km/h (0 Bft)
_ Max-Zeit 12:40 03:10 23:01 00:00 - - 14:25
Maximum _ 10,1 C 100 % 1016,7 hPa 0,0 mm - - 8,6 km/h
O (2 Bft)
Durchschnitt _ 1,0 C 92 % 1015,0 hPa #0,0 mm N - 0,3 km/h (0 Bft)